sensor_id;sensor_type;location;lat;lon;timestamp;P1;durP1;ratioP1;P2;durP2;ratioP2
59856;SDS011;45733;52.668;6.860;2024-03-08T00:01:14;1.55;;;1.45;;
59856;SDS011;45733;52.668;6.860;2024-03-08T00:03:41;1.60;;;1.50;;
59856;SDS011;45733;52.668;6.860;2024-03-08T00:06:07;1.50;;;1.40;;
59856;SDS011;45733;52.668;6.860;2024-03-08T00:08:33;1.60;;;1.50;;
59856;SDS011;45733;52.668;6.860;2024-03-08T00:10:58;2.05;;;1.95;;
59856;SDS011;45733;52.668;6.860;2024-03-08T00:13:24;1.67;;;1.58;;
59856;SDS011;45733;52.668;6.860;2024-03-08T00:15:50;1.60;;;1.50;;
59856;SDS011;45733;52.668;6.860;2024-03-08T00:18:16;1.60;;;1.50;;
59856;SDS011;45733;52.668;6.860;2024-03-08T00:20:42;1.60;;;1.50;;
59856;SDS011;45733;52.668;6.860;2024-03-08T00:23:09;1.58;;;1.48;;
59856;SDS011;45733;52.668;6.860;2024-03-08T00:25:36;1.60;;;1.50;;
59856;SDS011;45733;52.668;6.860;2024-03-08T00:28:02;1.70;;;1.60;;
59856;SDS011;45733;52.668;6.860;2024-03-08T00:30:31;1.63;;;1.52;;
59856;SDS011;45733;52.668;6.860;2024-03-08T00:32:56;1.60;;;1.50;;
59856;SDS011;45733;52.668;6.860;2024-03-08T00:35:22;1.58;;;1.48;;
59856;SDS011;45733;52.668;6.860;2024-03-08T00:37:48;1.60;;;1.50;;
59856;SDS011;45733;52.668;6.860;2024-03-08T00:40:14;1.35;;;1.30;;
59856;SDS011;45733;52.668;6.860;2024-03-08T00:42:40;1.50;;;1.40;;
59856;SDS011;45733;52.668;6.860;2024-03-08T00:45:06;1.50;;;1.40;;
59856;SDS011;45733;52.668;6.860;2024-03-08T00:47:32;1.30;;;1.30;;
59856;SDS011;45733;52.668;6.860;2024-03-08T00:49:58;1.40;;;1.40;;
59856;SDS011;45733;52.668;6.860;2024-03-08T00:52:24;1.40;;;1.35;;
59856;SDS011;45733;52.668;6.860;2024-03-08T00:54:49;1.50;;;1.40;;
59856;SDS011;45733;52.668;6.860;2024-03-08T00:57:15;1.30;;;1.30;;
59856;SDS011;45733;52.668;6.860;2024-03-08T00:59:41;1.45;;;1.40;;
59856;SDS011;45733;52.668;6.860;2024-03-08T01:02:07;1.27;;;1.27;;
59856;SDS011;45733;52.668;6.860;2024-03-08T01:04:34;1.30;;;1.30;;
59856;SDS011;45733;52.668;6.860;2024-03-08T01:07:00;1.20;;;1.20;;
59856;SDS011;45733;52.668;6.860;2024-03-08T01:09:26;1.20;;;1.20;;
59856;SDS011;45733;52.668;6.860;2024-03-08T01:11:52;1.30;;;1.30;;
59856;SDS011;45733;52.668;6.860;2024-03-08T01:14:20;1.30;;;1.30;;
59856;SDS011;45733;52.668;6.860;2024-03-08T01:16:49;1.30;;;1.30;;
59856;SDS011;45733;52.668;6.860;2024-03-08T01:19:15;1.20;;;1.20;;
59856;SDS011;45733;52.668;6.860;2024-03-08T01:21:41;1.30;;;1.30;;
59856;SDS011;45733;52.668;6.860;2024-03-08T01:24:07;1.30;;;1.30;;
59856;SDS011;45733;52.668;6.860;2024-03-08T01:26:33;1.30;;;1.30;;
59856;SDS011;45733;52.668;6.860;2024-03-08T01:29:02;1.20;;;1.20;;
59856;SDS011;45733;52.668;6.860;2024-03-08T01:31:31;1.30;;;1.30;;
59856;SDS011;45733;52.668;6.860;2024-03-08T01:33:57;1.20;;;1.20;;
59856;SDS011;45733;52.668;6.860;2024-03-08T01:36:23;1.30;;;1.30;;
59856;SDS011;45733;52.668;6.860;2024-03-08T01:38:50;1.20;;;1.20;;
59856;SDS011;45733;52.668;6.860;2024-03-08T01:41:15;1.20;;;1.20;;
59856;SDS011;45733;52.668;6.860;2024-03-08T01:43:42;1.20;;;1.20;;
59856;SDS011;45733;52.668;6.860;2024-03-08T01:46:08;1.20;;;1.20;;
59856;SDS011;45733;52.668;6.860;2024-03-08T01:48:36;1.23;;;1.23;;
59856;SDS011;45733;52.668;6.860;2024-03-08T01:51:02;1.20;;;1.20;;
59856;SDS011;45733;52.668;6.860;2024-03-08T01:53:28;1.20;;;1.20;;
59856;SDS011;45733;52.668;6.860;2024-03-08T01:55:56;1.20;;;1.20;;
59856;SDS011;45733;52.668;6.860;2024-03-08T01:58:22;1.20;;;1.20;;
59856;SDS011;45733;52.668;6.860;2024-03-08T02:00:48;1.20;;;1.20;;
59856;SDS011;45733;52.668;6.860;2024-03-08T02:03:17;1.20;;;1.20;;
59856;SDS011;45733;52.668;6.860;2024-03-08T02:05:44;1.20;;;1.20;;
59856;SDS011;45733;52.668;6.860;2024-03-08T02:08:09;1.20;;;1.20;;
59856;SDS011;45733;52.668;6.860;2024-03-08T02:10:40;1.58;;;1.48;;
59856;SDS011;45733;52.668;6.860;2024-03-08T02:13:07;1.30;;;1.30;;
59856;SDS011;45733;52.668;6.860;2024-03-08T02:18:17;1.25;;;1.25;;
59856;SDS011;45733;52.668;6.860;2024-03-08T02:20:43;1.30;;;1.30;;
59856;SDS011;45733;52.668;6.860;2024-03-08T02:23:09;1.27;;;1.27;;
59856;SDS011;45733;52.668;6.860;2024-03-08T02:25:35;1.30;;;1.30;;
59856;SDS011;45733;52.668;6.860;2024-03-08T02:28:01;1.30;;;1.30;;
59856;SDS011;45733;52.668;6.860;2024-03-08T02:30:27;1.50;;;1.40;;
59856;SDS011;45733;52.668;6.860;2024-03-08T02:32:54;1.35;;;1.35;;
59856;SDS011;45733;52.668;6.860;2024-03-08T02:35:20;1.50;;;1.40;;
59856;SDS011;45733;52.668;6.860;2024-03-08T02:37:46;1.42;;;1.40;;
59856;SDS011;45733;52.668;6.860;2024-03-08T02:40:13;1.48;;;1.40;;
59856;SDS011;45733;52.668;6.860;2024-03-08T02:42:39;1.50;;;1.40;;
59856;SDS011;45733;52.668;6.860;2024-03-08T02:45:05;1.33;;;1.33;;
59856;SDS011;45733;52.668;6.860;2024-03-08T02:47:31;1.55;;;1.45;;
59856;SDS011;45733;52.668;6.860;2024-03-08T02:49:57;1.50;;;1.40;;
59856;SDS011;45733;52.668;6.860;2024-03-08T02:52:22;1.60;;;1.50;;
59856;SDS011;45733;52.668;6.860;2024-03-08T02:54:48;1.60;;;1.50;;
59856;SDS011;45733;52.668;6.860;2024-03-08T02:57:14;1.63;;;1.52;;
59856;SDS011;45733;52.668;6.860;2024-03-08T02:59:41;1.70;;;1.60;;
59856;SDS011;45733;52.668;6.860;2024-03-08T03:02:07;1.70;;;1.60;;
59856;SDS011;45733;52.668;6.860;2024-03-08T03:04:35;1.70;;;1.60;;
59856;SDS011;45733;52.668;6.860;2024-03-08T03:07:01;1.70;;;1.60;;
59856;SDS011;45733;52.668;6.860;2024-03-08T03:09:26;1.65;;;1.55;;
59856;SDS011;45733;52.668;6.860;2024-03-08T03:11:53;1.70;;;1.60;;
59856;SDS011;45733;52.668;6.860;2024-03-08T03:14:20;1.60;;;1.50;;
59856;SDS011;45733;52.668;6.860;2024-03-08T03:16:47;1.60;;;1.50;;
59856;SDS011;45733;52.668;6.860;2024-03-08T03:19:12;1.80;;;1.70;;
59856;SDS011;45733;52.668;6.860;2024-03-08T03:21:40;1.70;;;1.60;;
59856;SDS011;45733;52.668;6.860;2024-03-08T03:24:08;1.77;;;1.67;;
59856;SDS011;45733;52.668;6.860;2024-03-08T03:26:40;1.70;;;1.60;;
59856;SDS011;45733;52.668;6.860;2024-03-08T03:29:06;1.80;;;1.70;;
59856;SDS011;45733;52.668;6.860;2024-03-08T03:31:33;1.70;;;1.60;;
59856;SDS011;45733;52.668;6.860;2024-03-08T03:33:59;1.67;;;1.58;;
59856;SDS011;45733;52.668;6.860;2024-03-08T03:36:31;1.60;;;1.50;;
59856;SDS011;45733;52.668;6.860;2024-03-08T03:38:58;1.70;;;1.60;;
59856;SDS011;45733;52.668;6.860;2024-03-08T03:41:38;1.65;;;1.55;;
59856;SDS011;45733;52.668;6.860;2024-03-08T03:44:04;1.63;;;1.52;;
59856;SDS011;45733;52.668;6.860;2024-03-08T03:46:33;1.70;;;1.60;;
59856;SDS011;45733;52.668;6.860;2024-03-08T03:48:59;1.73;;;1.63;;
59856;SDS011;45733;52.668;6.860;2024-03-08T03:51:25;1.67;;;1.58;;
59856;SDS011;45733;52.668;6.860;2024-03-08T03:53:51;1.70;;;1.60;;
59856;SDS011;45733;52.668;6.860;2024-03-08T03:56:18;1.70;;;1.60;;
59856;SDS011;45733;52.668;6.860;2024-03-08T03:58:44;1.70;;;1.60;;
59856;SDS011;45733;52.668;6.860;2024-03-08T04:01:09;1.70;;;1.60;;
59856;SDS011;45733;52.668;6.860;2024-03-08T04:03:35;1.70;;;1.60;;
59856;SDS011;45733;52.668;6.860;2024-03-08T04:06:02;1.77;;;1.67;;
59856;SDS011;45733;52.668;6.860;2024-03-08T04:08:31;1.67;;;1.58;;
59856;SDS011;45733;52.668;6.860;2024-03-08T04:10:59;1.70;;;1.60;;
59856;SDS011;45733;52.668;6.860;2024-03-08T04:13:25;1.60;;;1.50;;
59856;SDS011;45733;52.668;6.860;2024-03-08T04:15:51;1.70;;;1.60;;
59856;SDS011;45733;52.668;6.860;2024-03-08T04:18:17;1.70;;;1.60;;
59856;SDS011;45733;52.668;6.860;2024-03-08T04:20:44;1.75;;;1.65;;
59856;SDS011;45733;52.668;6.860;2024-03-08T04:23:10;1.70;;;1.60;;
59856;SDS011;45733;52.668;6.860;2024-03-08T04:25:36;1.70;;;1.60;;
59856;SDS011;45733;52.668;6.860;2024-03-08T04:28:02;1.67;;;1.58;;
59856;SDS011;45733;52.668;6.860;2024-03-08T04:30:28;1.73;;;1.63;;
59856;SDS011;45733;52.668;6.860;2024-03-08T04:32:55;1.70;;;1.60;;
59856;SDS011;45733;52.668;6.860;2024-03-08T04:35:20;1.80;;;1.70;;
59856;SDS011;45733;52.668;6.860;2024-03-08T04:37:46;1.80;;;1.70;;
59856;SDS011;45733;52.668;6.860;2024-03-08T04:40:12;1.90;;;1.80;;
59856;SDS011;45733;52.668;6.860;2024-03-08T04:42:38;1.83;;;1.73;;
59856;SDS011;45733;52.668;6.860;2024-03-08T04:45:05;1.80;;;1.70;;
59856;SDS011;45733;52.668;6.860;2024-03-08T04:47:33;1.83;;;1.73;;
59856;SDS011;45733;52.668;6.860;2024-03-08T04:49:59;1.90;;;1.80;;
59856;SDS011;45733;52.668;6.860;2024-03-08T04:52:24;1.83;;;1.73;;
59856;SDS011;45733;52.668;6.860;2024-03-08T04:54:51;1.85;;;1.75;;
59856;SDS011;45733;52.668;6.860;2024-03-08T04:57:16;1.83;;;1.73;;
59856;SDS011;45733;52.668;6.860;2024-03-08T04:59:45;1.95;;;1.85;;
59856;SDS011;45733;52.668;6.860;2024-03-08T05:02:10;1.98;;;1.88;;
59856;SDS011;45733;52.668;6.860;2024-03-08T05:04:36;2.00;;;1.90;;
59856;SDS011;45733;52.668;6.860;2024-03-08T05:07:02;2.08;;;1.98;;
59856;SDS011;45733;52.668;6.860;2024-03-08T05:09:29;2.05;;;1.95;;
59856;SDS011;45733;52.668;6.860;2024-03-08T05:11:56;2.05;;;1.95;;
59856;SDS011;45733;52.668;6.860;2024-03-08T05:14:25;2.08;;;1.98;;
59856;SDS011;45733;52.668;6.860;2024-03-08T05:16:50;2.17;;;2.08;;
59856;SDS011;45733;52.668;6.860;2024-03-08T05:19:16;2.22;;;2.13;;
59856;SDS011;45733;52.668;6.860;2024-03-08T05:21:44;2.28;;;2.17;;
59856;SDS011;45733;52.668;6.860;2024-03-08T05:24:10;2.45;;;2.35;;
59856;SDS011;45733;52.668;6.860;2024-03-08T05:26:36;2.35;;;2.25;;
59856;SDS011;45733;52.668;6.860;2024-03-08T05:29:02;2.38;;;2.28;;
59856;SDS011;45733;52.668;6.860;2024-03-08T05:31:28;2.55;;;2.45;;
59856;SDS011;45733;52.668;6.860;2024-03-08T05:33:56;2.45;;;2.35;;
59856;SDS011;45733;52.668;6.860;2024-03-08T05:36:22;2.53;;;2.42;;
59856;SDS011;45733;52.668;6.860;2024-03-08T05:38:47;2.78;;;2.60;;
59856;SDS011;45733;52.668;6.860;2024-03-08T05:41:15;4.15;;;3.85;;
59856;SDS011;45733;52.668;6.860;2024-03-08T05:43:42;2.92;;;2.72;;
59856;SDS011;45733;52.668;6.860;2024-03-08T05:46:08;3.25;;;3.05;;
59856;SDS011;45733;52.668;6.860;2024-03-08T05:48:36;3.05;;;2.85;;
59856;SDS011;45733;52.668;6.860;2024-03-08T05:51:02;3.28;;;3.08;;
59856;SDS011;45733;52.668;6.860;2024-03-08T05:53:28;3.58;;;3.38;;
59856;SDS011;45733;52.668;6.860;2024-03-08T05:55:57;4.32;;;4.03;;
59856;SDS011;45733;52.668;6.860;2024-03-08T05:58:24;4.15;;;3.85;;
59856;SDS011;45733;52.668;6.860;2024-03-08T06:00:49;4.47;;;4.18;;
59856;SDS011;45733;52.668;6.860;2024-03-08T06:03:15;4.28;;;3.97;;
59856;SDS011;45733;52.668;6.860;2024-03-08T06:05:41;4.55;;;4.25;;
59856;SDS011;45733;52.668;6.860;2024-03-08T06:08:07;4.65;;;4.35;;
59856;SDS011;45733;52.668;6.860;2024-03-08T06:10:33;4.78;;;4.47;;
59856;SDS011;45733;52.668;6.860;2024-03-08T06:12:58;5.00;;;4.70;;
59856;SDS011;45733;52.668;6.860;2024-03-08T06:15:25;5.10;;;4.80;;
59856;SDS011;45733;52.668;6.860;2024-03-08T06:17:50;5.43;;;5.03;;
59856;SDS011;45733;52.668;6.860;2024-03-08T06:20:18;5.47;;;5.07;;
59856;SDS011;45733;52.668;6.860;2024-03-08T06:22:43;5.53;;;5.13;;
59856;SDS011;45733;52.668;6.860;2024-03-08T06:25:10;5.15;;;4.85;;
59856;SDS011;45733;52.668;6.860;2024-03-08T06:27:42;5.47;;;5.07;;
59856;SDS011;45733;52.668;6.860;2024-03-08T06:30:09;6.32;;;5.93;;
59856;SDS011;45733;52.668;6.860;2024-03-08T06:32:38;5.10;;;4.80;;
59856;SDS011;45733;52.668;6.860;2024-03-08T06:35:04;4.93;;;4.63;;
59856;SDS011;45733;52.668;6.860;2024-03-08T06:37:35;5.20;;;4.90;;
59856;SDS011;45733;52.668;6.860;2024-03-08T06:40:01;4.97;;;4.68;;
59856;SDS011;45733;52.668;6.860;2024-03-08T06:42:33;4.95;;;4.65;;
59856;SDS011;45733;52.668;6.860;2024-03-08T06:45:00;4.82;;;4.53;;
59856;SDS011;45733;52.668;6.860;2024-03-08T06:47:33;4.85;;;4.55;;
59856;SDS011;45733;52.668;6.860;2024-03-08T06:49:59;4.70;;;4.40;;
59856;SDS011;45733;52.668;6.860;2024-03-08T06:52:25;4.53;;;4.22;;
59856;SDS011;45733;52.668;6.860;2024-03-08T06:54:54;4.30;;;4.00;;
59856;SDS011;45733;52.668;6.860;2024-03-08T06:57:19;4.18;;;3.88;;
59856;SDS011;45733;52.668;6.860;2024-03-08T06:59:47;13.52;;;12.30;;
59856;SDS011;45733;52.668;6.860;2024-03-08T07:02:13;3.28;;;3.08;;
59856;SDS011;45733;52.668;6.860;2024-03-08T07:04:39;2.97;;;2.78;;
59856;SDS011;45733;52.668;6.860;2024-03-08T07:07:05;2.78;;;2.58;;
59856;SDS011;45733;52.668;6.860;2024-03-08T07:09:34;2.33;;;2.22;;
59856;SDS011;45733;52.668;6.860;2024-03-08T07:12:01;2.00;;;1.90;;
59856;SDS011;45733;52.668;6.860;2024-03-08T07:14:27;1.90;;;1.80;;
59856;SDS011;45733;52.668;6.860;2024-03-08T07:16:52;1.88;;;1.77;;
59856;SDS011;45733;52.668;6.860;2024-03-08T07:19:18;1.80;;;1.70;;
59856;SDS011;45733;52.668;6.860;2024-03-08T07:21:44;1.70;;;1.60;;
59856;SDS011;45733;52.668;6.860;2024-03-08T07:24:10;1.60;;;1.50;;
59856;SDS011;45733;52.668;6.860;2024-03-08T07:26:45;1.50;;;1.40;;
59856;SDS011;45733;52.668;6.860;2024-03-08T07:29:18;1.63;;;1.52;;
59856;SDS011;45733;52.668;6.860;2024-03-08T07:31:43;1.50;;;1.40;;
59856;SDS011;45733;52.668;6.860;2024-03-08T07:34:36;1.50;;;1.40;;
59856;SDS011;45733;52.668;6.860;2024-03-08T07:37:02;1.42;;;1.38;;
59856;SDS011;45733;52.668;6.860;2024-03-08T07:39:29;1.55;;;1.45;;
59856;SDS011;45733;52.668;6.860;2024-03-08T07:41:54;1.40;;;1.35;;
59856;SDS011;45733;52.668;6.860;2024-03-08T07:44:20;1.50;;;1.42;;
59856;SDS011;45733;52.668;6.860;2024-03-08T07:46:46;1.67;;;1.58;;
59856;SDS011;45733;52.668;6.860;2024-03-08T07:49:11;1.70;;;1.60;;
59856;SDS011;45733;52.668;6.860;2024-03-08T07:51:37;1.70;;;1.60;;
59856;SDS011;45733;52.668;6.860;2024-03-08T07:54:03;1.70;;;1.60;;
59856;SDS011;45733;52.668;6.860;2024-03-08T07:56:30;1.80;;;1.70;;
59856;SDS011;45733;52.668;6.860;2024-03-08T07:58:56;1.60;;;1.50;;
59856;SDS011;45733;52.668;6.860;2024-03-08T08:01:21;1.50;;;1.40;;
59856;SDS011;45733;52.668;6.860;2024-03-08T08:03:47;1.40;;;1.40;;
59856;SDS011;45733;52.668;6.860;2024-03-08T08:06:16;1.30;;;1.30;;
59856;SDS011;45733;52.668;6.860;2024-03-08T08:08:42;1.30;;;1.30;;
59856;SDS011;45733;52.668;6.860;2024-03-08T08:11:08;1.20;;;1.20;;
59856;SDS011;45733;52.668;6.860;2024-03-08T08:13:34;1.27;;;1.27;;
59856;SDS011;45733;52.668;6.860;2024-03-08T08:16:01;1.20;;;1.20;;
59856;SDS011;45733;52.668;6.860;2024-03-08T08:18:27;1.35;;;1.33;;
59856;SDS011;45733;52.668;6.860;2024-03-08T08:20:54;2.38;;;2.20;;
59856;SDS011;45733;52.668;6.860;2024-03-08T08:23:20;1.40;;;1.35;;
59856;SDS011;45733;52.668;6.860;2024-03-08T08:25:46;1.50;;;1.40;;
59856;SDS011;45733;52.668;6.860;2024-03-08T08:28:18;1.60;;;1.50;;
59856;SDS011;45733;52.668;6.860;2024-03-08T08:30:44;1.60;;;1.50;;
59856;SDS011;45733;52.668;6.860;2024-03-08T08:33:10;3.88;;;3.67;;
59856;SDS011;45733;52.668;6.860;2024-03-08T08:35:39;1.52;;;1.42;;
59856;SDS011;45733;52.668;6.860;2024-03-08T08:38:05;1.50;;;1.40;;
59856;SDS011;45733;52.668;6.860;2024-03-08T08:40:32;1.30;;;1.30;;
59856;SDS011;45733;52.668;6.860;2024-03-08T08:42:58;1.50;;;1.40;;
59856;SDS011;45733;52.668;6.860;2024-03-08T08:45:24;1.58;;;1.48;;
59856;SDS011;45733;52.668;6.860;2024-03-08T08:47:51;1.58;;;1.48;;
59856;SDS011;45733;52.668;6.860;2024-03-08T08:50:17;1.58;;;1.48;;
59856;SDS011;45733;52.668;6.860;2024-03-08T08:52:48;1.70;;;1.60;;
59856;SDS011;45733;52.668;6.860;2024-03-08T08:55:14;1.63;;;1.52;;
59856;SDS011;45733;52.668;6.860;2024-03-08T08:57:40;2.03;;;1.92;;
59856;SDS011;45733;52.668;6.860;2024-03-08T09:00:07;3.60;;;3.40;;
59856;SDS011;45733;52.668;6.860;2024-03-08T09:02:36;2.03;;;1.92;;
59856;SDS011;45733;52.668;6.860;2024-03-08T09:05:02;1.88;;;1.77;;
59856;SDS011;45733;52.668;6.860;2024-03-08T09:07:28;1.88;;;1.77;;
59856;SDS011;45733;52.668;6.860;2024-03-08T09:09:55;3.35;;;3.15;;
59856;SDS011;45733;52.668;6.860;2024-03-08T09:12:23;2.70;;;2.55;;
59856;SDS011;45733;52.668;6.860;2024-03-08T09:14:49;2.33;;;2.22;;
59856;SDS011;45733;52.668;6.860;2024-03-08T09:17:15;2.47;;;2.38;;
59856;SDS011;45733;52.668;6.860;2024-03-08T09:19:45;2.10;;;2.00;;
59856;SDS011;45733;52.668;6.860;2024-03-08T09:22:14;3.03;;;2.83;;
59856;SDS011;45733;52.668;6.860;2024-03-08T09:24:39;4.20;;;3.90;;
59856;SDS011;45733;52.668;6.860;2024-03-08T09:27:05;3.60;;;3.40;;
59856;SDS011;45733;52.668;6.860;2024-03-08T09:29:31;3.85;;;3.65;;
59856;SDS011;45733;52.668;6.860;2024-03-08T09:31:57;4.43;;;4.13;;
59856;SDS011;45733;52.668;6.860;2024-03-08T09:34:22;4.55;;;4.25;;
59856;SDS011;45733;52.668;6.860;2024-03-08T09:36:48;4.45;;;4.15;;
59856;SDS011;45733;52.668;6.860;2024-03-08T09:39:17;5.05;;;4.75;;
59856;SDS011;45733;52.668;6.860;2024-03-08T09:41:46;4.80;;;4.50;;
59856;SDS011;45733;52.668;6.860;2024-03-08T09:44:18;4.47;;;4.18;;
59856;SDS011;45733;52.668;6.860;2024-03-08T09:46:45;4.55;;;4.25;;
59856;SDS011;45733;52.668;6.860;2024-03-08T09:49:16;6.55;;;6.15;;
59856;SDS011;45733;52.668;6.860;2024-03-08T09:51:42;4.63;;;4.32;;
59856;SDS011;45733;52.668;6.860;2024-03-08T09:54:07;5.20;;;4.90;;
59856;SDS011;45733;52.668;6.860;2024-03-08T09:56:34;6.22;;;5.82;;
59856;SDS011;45733;52.668;6.860;2024-03-08T09:59:00;5.90;;;5.50;;
59856;SDS011;45733;52.668;6.860;2024-03-08T10:02:05;5.57;;;5.18;;
59856;SDS011;45733;52.668;6.860;2024-03-08T10:04:30;5.80;;;5.40;;
59856;SDS011;45733;52.668;6.860;2024-03-08T10:07:00;6.22;;;5.82;;
59856;SDS011;45733;52.668;6.860;2024-03-08T10:09:26;6.82;;;6.35;;
59856;SDS011;45733;52.668;6.860;2024-03-08T10:11:56;5.95;;;5.55;;
59856;SDS011;45733;52.668;6.860;2024-03-08T10:14:23;6.10;;;5.70;;
59856;SDS011;45733;52.668;6.860;2024-03-08T10:16:52;8.48;;;7.88;;
59856;SDS011;45733;52.668;6.860;2024-03-08T10:19:18;6.43;;;6.03;;
59856;SDS011;45733;52.668;6.860;2024-03-08T10:21:50;7.00;;;6.50;;
59856;SDS011;45733;52.668;6.860;2024-03-08T10:24:18;6.93;;;6.43;;
59856;SDS011;45733;52.668;6.860;2024-03-08T10:26:44;6.07;;;5.68;;
59856;SDS011;45733;52.668;6.860;2024-03-08T10:29:11;6.90;;;6.40;;
59856;SDS011;45733;52.668;6.860;2024-03-08T10:31:42;7.18;;;6.68;;
59856;SDS011;45733;52.668;6.860;2024-03-08T10:34:11;4.95;;;4.65;;
59856;SDS011;45733;52.668;6.860;2024-03-08T10:36:37;5.00;;;4.70;;
59856;SDS011;45733;52.668;6.860;2024-03-08T10:39:19;4.15;;;3.88;;
59856;SDS011;45733;52.668;6.860;2024-03-08T10:41:56;4.22;;;3.92;;
59856;SDS011;45733;52.668;6.860;2024-03-08T10:44:28;3.70;;;3.50;;
59856;SDS011;45733;52.668;6.860;2024-03-08T10:49:22;3.80;;;3.60;;
59856;SDS011;45733;52.668;6.860;2024-03-08T10:51:55;3.70;;;3.50;;
59856;SDS011;45733;52.668;6.860;2024-03-08T10:54:23;4.13;;;3.83;;
59856;SDS011;45733;52.668;6.860;2024-03-08T10:56:51;4.20;;;3.90;;
59856;SDS011;45733;52.668;6.860;2024-03-08T10:59:17;4.72;;;4.43;;
59856;SDS011;45733;52.668;6.860;2024-03-08T11:01:44;4.03;;;3.80;;
59856;SDS011;45733;52.668;6.860;2024-03-08T11:04:10;4.47;;;4.18;;
59856;SDS011;45733;52.668;6.860;2024-03-08T11:09:02;4.95;;;4.60;;
59856;SDS011;45733;52.668;6.860;2024-03-08T11:11:32;4.70;;;4.40;;
59856;SDS011;45733;52.668;6.860;2024-03-08T11:13:59;4.75;;;4.45;;
59856;SDS011;45733;52.668;6.860;2024-03-08T11:19:06;6.22;;;5.82;;
59856;SDS011;45733;52.668;6.860;2024-03-08T11:21:56;4.47;;;4.18;;
59856;SDS011;45733;52.668;6.860;2024-03-08T11:24:26;4.53;;;4.22;;
59856;SDS011;45733;52.668;6.860;2024-03-08T11:26:58;4.07;;;3.85;;
59856;SDS011;45733;52.668;6.860;2024-03-08T11:34:32;3.50;;;3.30;;
59856;SDS011;45733;52.668;6.860;2024-03-08T11:36:58;3.13;;;2.92;;
59856;SDS011;45733;52.668;6.860;2024-03-08T11:39:25;3.17;;;2.97;;
59856;SDS011;45733;52.668;6.860;2024-03-08T11:41:51;3.28;;;3.08;;
59856;SDS011;45733;52.668;6.860;2024-03-08T11:44:17;3.35;;;3.15;;
59856;SDS011;45733;52.668;6.860;2024-03-08T11:46:43;4.40;;;4.10;;
59856;SDS011;45733;52.668;6.860;2024-03-08T11:49:13;3.53;;;3.33;;
59856;SDS011;45733;52.668;6.860;2024-03-08T11:51:39;3.53;;;3.33;;
59856;SDS011;45733;52.668;6.860;2024-03-08T11:54:06;3.20;;;3.00;;
59856;SDS011;45733;52.668;6.860;2024-03-08T11:56:36;3.10;;;2.90;;
59856;SDS011;45733;52.668;6.860;2024-03-08T11:59:02;2.95;;;2.75;;
59856;SDS011;45733;52.668;6.860;2024-03-08T12:01:28;2.58;;;2.47;;
59856;SDS011;45733;52.668;6.860;2024-03-08T12:03:54;3.75;;;3.55;;
59856;SDS011;45733;52.668;6.860;2024-03-08T12:06:24;2.40;;;2.30;;
59856;SDS011;45733;52.668;6.860;2024-03-08T12:08:50;2.33;;;2.22;;
59856;SDS011;45733;52.668;6.860;2024-03-08T12:11:19;2.20;;;2.10;;
59856;SDS011;45733;52.668;6.860;2024-03-08T12:13:48;1.90;;;1.80;;
59856;SDS011;45733;52.668;6.860;2024-03-08T12:16:16;2.70;;;2.50;;
59856;SDS011;45733;52.668;6.860;2024-03-08T12:18:50;1.73;;;1.63;;
59856;SDS011;45733;52.668;6.860;2024-03-08T12:21:17;2.80;;;2.60;;
59856;SDS011;45733;52.668;6.860;2024-03-08T12:23:46;2.40;;;2.30;;
59856;SDS011;45733;52.668;6.860;2024-03-08T12:26:23;1.67;;;1.58;;
59856;SDS011;45733;52.668;6.860;2024-03-08T12:28:52;1.77;;;1.67;;
59856;SDS011;45733;52.668;6.860;2024-03-08T12:31:18;1.92;;;1.83;;
59856;SDS011;45733;52.668;6.860;2024-03-08T12:36:17;2.00;;;1.90;;
59856;SDS011;45733;52.668;6.860;2024-03-08T12:38:43;1.80;;;1.70;;
59856;SDS011;45733;52.668;6.860;2024-03-08T12:41:16;1.63;;;1.52;;
59856;SDS011;45733;52.668;6.860;2024-03-08T12:43:44;1.50;;;1.40;;
59856;SDS011;45733;52.668;6.860;2024-03-08T12:46:19;1.42;;;1.40;;
59856;SDS011;45733;52.668;6.860;2024-03-08T12:48:47;1.48;;;1.38;;
59856;SDS011;45733;52.668;6.860;2024-03-08T12:51:16;0.93;;;0.93;;
59856;SDS011;45733;52.668;6.860;2024-03-08T12:53:43;0.93;;;0.93;;
59856;SDS011;45733;52.668;6.860;2024-03-08T12:56:10;1.17;;;1.17;;
59856;SDS011;45733;52.668;6.860;2024-03-08T12:58:37;1.08;;;1.08;;
59856;SDS011;45733;52.668;6.860;2024-03-08T13:01:04;2.55;;;1.83;;
59856;SDS011;45733;52.668;6.860;2024-03-08T13:03:35;1.23;;;1.23;;
59856;SDS011;45733;52.668;6.860;2024-03-08T13:06:05;1.42;;;1.33;;
59856;SDS011;45733;52.668;6.860;2024-03-08T13:08:36;1.75;;;1.65;;
59856;SDS011;45733;52.668;6.860;2024-03-08T13:11:06;2.20;;;2.10;;
59856;SDS011;45733;52.668;6.860;2024-03-08T13:13:32;2.33;;;2.22;;
59856;SDS011;45733;52.668;6.860;2024-03-08T13:16:01;1.85;;;1.75;;
59856;SDS011;45733;52.668;6.860;2024-03-08T13:18:27;1.63;;;1.52;;
59856;SDS011;45733;52.668;6.860;2024-03-08T13:20:54;1.45;;;1.40;;
59856;SDS011;45733;52.668;6.860;2024-03-08T13:23:20;1.42;;;1.38;;
59856;SDS011;45733;52.668;6.860;2024-03-08T13:25:46;1.55;;;1.45;;
59856;SDS011;45733;52.668;6.860;2024-03-08T13:28:15;1.65;;;1.55;;
59856;SDS011;45733;52.668;6.860;2024-03-08T13:30:42;1.60;;;1.55;;
59856;SDS011;45733;52.668;6.860;2024-03-08T13:33:09;1.38;;;1.35;;
59856;SDS011;45733;52.668;6.860;2024-03-08T13:35:34;1.50;;;1.40;;
59856;SDS011;45733;52.668;6.860;2024-03-08T13:38:00;1.48;;;1.40;;
59856;SDS011;45733;52.668;6.860;2024-03-08T13:40:29;1.58;;;1.48;;
59856;SDS011;45733;52.668;6.860;2024-03-08T13:42:56;1.27;;;1.27;;
59856;SDS011;45733;52.668;6.860;2024-03-08T13:45:21;1.52;;;1.42;;
59856;SDS011;45733;52.668;6.860;2024-03-08T13:47:50;1.23;;;1.23;;
59856;SDS011;45733;52.668;6.860;2024-03-08T13:50:19;1.75;;;1.67;;
59856;SDS011;45733;52.668;6.860;2024-03-08T13:52:48;1.10;;;1.10;;
59856;SDS011;45733;52.668;6.860;2024-03-08T13:55:19;1.60;;;1.50;;
59856;SDS011;45733;52.668;6.860;2024-03-08T13:57:50;1.27;;;1.27;;
59856;SDS011;45733;52.668;6.860;2024-03-08T14:00:18;2.33;;;2.22;;
59856;SDS011;45733;52.668;6.860;2024-03-08T14:02:48;1.15;;;1.15;;
59856;SDS011;45733;52.668;6.860;2024-03-08T14:05:14;1.20;;;1.20;;
59856;SDS011;45733;52.668;6.860;2024-03-08T14:07:41;1.75;;;1.65;;
59856;SDS011;45733;52.668;6.860;2024-03-08T14:10:07;1.73;;;1.63;;
59856;SDS011;45733;52.668;6.860;2024-03-08T14:12:35;1.45;;;1.40;;
59856;SDS011;45733;52.668;6.860;2024-03-08T14:15:01;1.77;;;1.67;;
59856;SDS011;45733;52.668;6.860;2024-03-08T14:17:29;1.35;;;1.33;;
59856;SDS011;45733;52.668;6.860;2024-03-08T14:19:56;1.95;;;1.85;;
59856;SDS011;45733;52.668;6.860;2024-03-08T14:22:21;2.20;;;2.10;;
59856;SDS011;45733;52.668;6.860;2024-03-08T14:24:48;2.03;;;1.92;;
59856;SDS011;45733;52.668;6.860;2024-03-08T14:27:14;1.85;;;1.75;;
59856;SDS011;45733;52.668;6.860;2024-03-08T14:29:42;1.33;;;1.30;;
59856;SDS011;45733;52.668;6.860;2024-03-08T14:32:08;1.73;;;1.63;;
59856;SDS011;45733;52.668;6.860;2024-03-08T14:34:35;1.98;;;1.88;;
59856;SDS011;45733;52.668;6.860;2024-03-08T14:37:01;1.95;;;1.83;;
59856;SDS011;45733;52.668;6.860;2024-03-08T14:39:30;1.10;;;1.00;;
59856;SDS011;45733;52.668;6.860;2024-03-08T14:41:58;0.98;;;0.98;;
59856;SDS011;45733;52.668;6.860;2024-03-08T14:44:25;1.10;;;1.10;;
59856;SDS011;45733;52.668;6.860;2024-03-08T14:46:51;1.63;;;1.52;;
59856;SDS011;45733;52.668;6.860;2024-03-08T14:49:17;1.02;;;1.02;;
59856;SDS011;45733;52.668;6.860;2024-03-08T14:51:44;1.10;;;1.10;;
59856;SDS011;45733;52.668;6.860;2024-03-08T14:54:10;1.30;;;1.30;;
59856;SDS011;45733;52.668;6.860;2024-03-08T14:56:36;1.00;;;1.00;;
59856;SDS011;45733;52.668;6.860;2024-03-08T14:59:02;2.97;;;2.78;;
59856;SDS011;45733;52.668;6.860;2024-03-08T15:01:30;1.45;;;1.35;;
59856;SDS011;45733;52.668;6.860;2024-03-08T15:03:58;1.00;;;1.00;;
59856;SDS011;45733;52.668;6.860;2024-03-08T15:06:33;1.20;;;1.20;;